createdAt,value
2023-03-07T00:02:06.293Z,2.00
2023-03-07T00:04:33.625Z,2.00
2023-03-07T00:07:01.251Z,2.00
2023-03-07T00:09:28.607Z,2.00
2023-03-07T00:11:55.905Z,2.10
2023-03-07T00:14:23.210Z,2.00
2023-03-07T00:16:51.884Z,2.00
2023-03-07T00:19:19.584Z,2.00
2023-03-07T00:21:46.896Z,2.10
2023-03-07T00:24:14.204Z,2.10
2023-03-07T00:26:41.525Z,2.10
2023-03-07T00:29:09.772Z,2.10
2023-03-07T00:31:37.976Z,2.10
2023-03-07T00:34:05.709Z,2.10
2023-03-07T00:36:33.009Z,2.10
2023-03-07T00:39:00.345Z,2.10
2023-03-07T00:41:29.321Z,2.10
2023-03-07T00:43:56.688Z,2.10
2023-03-07T00:46:26.167Z,2.10
2023-03-07T00:48:53.654Z,2.10
2023-03-07T00:51:22.657Z,2.10
2023-03-07T00:53:50.658Z,2.10
2023-03-07T00:56:20.365Z,2.20
2023-03-07T00:58:48.547Z,2.40
2023-03-07T01:01:19.507Z,2.40
2023-03-07T01:03:49.904Z,2.60
2023-03-07T01:06:19.927Z,2.60
2023-03-07T01:08:47.458Z,2.50
2023-03-07T01:11:15.437Z,2.40
2023-03-07T01:13:42.878Z,2.40
2023-03-07T01:16:17.929Z,2.40
2023-03-07T01:18:48.867Z,2.50
2023-03-07T01:21:18.260Z,2.40
2023-03-07T01:23:46.464Z,2.40
2023-03-07T01:26:20.014Z,2.40
2023-03-07T01:28:48.190Z,2.30
2023-03-07T01:31:15.600Z,2.30
2023-03-07T01:33:43.175Z,2.30
2023-03-07T01:36:31.354Z,2.20
2023-03-07T01:39:06.921Z,2.10
2023-03-07T01:41:36.590Z,2.10
2023-03-07T01:44:08.549Z,2.00
2023-03-07T01:46:54.011Z,2.00
2023-03-07T01:49:37.943Z,1.90
2023-03-07T01:52:08.193Z,1.90
2023-03-07T01:54:40.021Z,1.80
2023-03-07T01:57:08.083Z,1.70
2023-03-07T01:59:41.455Z,1.70
2023-03-07T02:02:13.781Z,1.70
2023-03-07T02:04:49.930Z,1.60
2023-03-07T02:07:21.910Z,1.60
2023-03-07T02:09:50.902Z,1.60
2023-03-07T02:12:18.363Z,1.60
2023-03-07T02:14:48.484Z,1.60
2023-03-07T02:17:16.739Z,1.60
2023-03-07T02:19:51.762Z,1.60
2023-03-07T02:22:20.106Z,1.60
2023-03-07T02:25:28.409Z,1.60
2023-03-07T02:27:57.440Z,1.60
2023-03-07T02:30:25.793Z,1.60
2023-03-07T02:32:53.158Z,1.50
2023-03-07T02:35:25.692Z,1.60
2023-03-07T02:37:56.295Z,1.60
2023-03-07T02:40:27.257Z,1.50
2023-03-07T02:42:57.674Z,1.50
2023-03-07T02:45:25.043Z,1.50
2023-03-07T02:47:52.586Z,1.40
2023-03-07T02:50:20.021Z,1.30
2023-03-07T02:52:47.469Z,1.30
2023-03-07T02:55:14.870Z,1.20
2023-03-07T02:57:42.252Z,1.20
2023-03-07T03:00:12.777Z,1.10
2023-03-07T03:02:40.028Z,1.10
2023-03-07T03:05:11.958Z,1.10
2023-03-07T03:07:39.639Z,0.90
2023-03-07T03:10:07.696Z,0.90
2023-03-07T03:12:35.051Z,0.80
2023-03-07T03:15:02.457Z,0.70
2023-03-07T03:17:30.304Z,0.80
2023-03-07T03:19:57.574Z,0.70
2023-03-07T03:22:25.364Z,0.60
2023-03-07T03:24:52.654Z,0.50
2023-03-07T03:27:20.106Z,0.40
2023-03-07T03:29:47.405Z,0.40
2023-03-07T03:32:14.795Z,0.30
2023-03-07T03:34:42.200Z,0.30
2023-03-07T03:37:09.494Z,0.30
2023-03-07T03:39:37.957Z,0.20
2023-03-07T03:42:06.598Z,0.20
2023-03-07T03:44:33.923Z,0.20
2023-03-07T03:47:01.464Z,0.10
2023-03-07T03:49:28.915Z,0.10
2023-03-07T03:51:56.422Z,0.10
2023-03-07T03:54:24.077Z,0.10
2023-03-07T03:56:51.660Z,0.10
2023-03-07T03:59:19.084Z,0.00
2023-03-07T04:01:46.418Z,0.00
2023-03-07T04:04:13.762Z,-0.10
2023-03-07T04:06:42.840Z,-0.10
2023-03-07T04:09:11.114Z,-0.10
2023-03-07T04:11:38.431Z,-0.10
2023-03-07T04:14:06.246Z,-0.10
2023-03-07T04:16:33.650Z,-0.10
2023-03-07T04:19:00.991Z,-0.10
2023-03-07T04:21:28.442Z,-0.10
2023-03-07T04:23:57.452Z,0.00
2023-03-07T04:26:25.406Z,-0.10
2023-03-07T04:28:52.862Z,-0.10
2023-03-07T04:31:23.274Z,-0.10
2023-03-07T04:33:52.106Z,-0.20
2023-03-07T04:36:19.408Z,-0.20
2023-03-07T04:38:48.260Z,-0.20
2023-03-07T04:41:18.457Z,-0.30
2023-03-07T04:43:46.133Z,-0.30
2023-03-07T04:46:15.327Z,-0.30
2023-03-07T04:48:42.654Z,-0.30
2023-03-07T04:51:10.117Z,-0.30
2023-03-07T04:53:37.746Z,-0.20
2023-03-07T04:56:08.454Z,-0.20
2023-03-07T04:58:36.934Z,-0.30
2023-03-07T05:01:06.083Z,-0.30
2023-03-07T05:03:34.117Z,-0.30
2023-03-07T05:06:15.086Z,-0.30
2023-03-07T05:08:42.732Z,-0.30
2023-03-07T05:11:09.962Z,-0.30
2023-03-07T05:13:37.587Z,-0.20
2023-03-07T05:16:05.402Z,-0.20
2023-03-07T05:18:32.697Z,-0.20
2023-03-07T05:21:00.249Z,-0.20
2023-03-07T05:23:27.555Z,-0.10
2023-03-07T05:25:54.882Z,-0.10
2023-03-07T05:28:22.214Z,-0.10
2023-03-07T05:30:50.124Z,-0.10
2023-03-07T05:33:17.682Z,-0.10
2023-03-07T05:35:45.106Z,-0.10
2023-03-07T05:38:12.429Z,-0.10
2023-03-07T05:40:40.437Z,-0.10
2023-03-07T05:43:07.849Z,0.00
2023-03-07T05:45:35.202Z,-0.10
2023-03-07T05:48:02.835Z,-0.10
2023-03-07T05:50:30.992Z,-0.10
2023-03-07T05:52:58.232Z,-0.20
2023-03-07T05:55:25.474Z,-0.20
2023-03-07T05:57:52.721Z,-0.20
2023-03-07T06:00:20.546Z,-0.20
2023-03-07T06:02:47.843Z,-0.10
2023-03-07T06:05:15.614Z,-0.10
2023-03-07T06:07:42.871Z,-0.10
2023-03-07T06:10:12.270Z,-0.10
2023-03-07T06:12:39.602Z,0.00
2023-03-07T06:15:09.083Z,0.10
2023-03-07T06:17:36.422Z,0.10
2023-03-07T06:20:04.425Z,0.20
2023-03-07T06:22:32.413Z,0.30
2023-03-07T06:24:59.748Z,0.30
2023-03-07T06:27:26.968Z,0.40
2023-03-07T06:29:54.305Z,0.50
2023-03-07T06:32:21.749Z,0.60
2023-03-07T06:34:49.001Z,0.60
2023-03-07T06:37:16.443Z,0.60
2023-03-07T06:39:44.081Z,0.60
2023-03-07T06:42:11.303Z,0.60
2023-03-07T06:44:39.031Z,0.70
2023-03-07T06:47:06.406Z,0.70
2023-03-07T06:49:33.801Z,0.80
2023-03-07T06:52:01.135Z,0.80
2023-03-07T06:54:28.412Z,0.90
2023-03-07T06:56:55.802Z,1.00
2023-03-07T06:59:23.197Z,1.10
2023-03-07T07:01:50.550Z,1.20
2023-03-07T07:04:17.898Z,1.20
2023-03-07T07:06:45.365Z,1.30
2023-03-07T07:09:14.484Z,1.50
2023-03-07T07:11:41.807Z,1.60
2023-03-07T07:14:09.050Z,1.80
2023-03-07T07:16:36.697Z,1.90
2023-03-07T07:19:04.291Z,2.00
2023-03-07T07:21:31.816Z,2.10
2023-03-07T07:23:59.438Z,2.20
2023-03-07T07:26:26.881Z,2.20
2023-03-07T07:28:54.210Z,2.30
2023-03-07T07:31:21.484Z,2.20
2023-03-07T07:33:48.959Z,2.30
2023-03-07T07:36:16.201Z,2.30
2023-03-07T07:38:43.409Z,2.30
2023-03-07T07:41:10.739Z,2.40
2023-03-07T07:43:38.267Z,2.50
2023-03-07T07:46:06.088Z,2.50
2023-03-07T07:48:34.031Z,2.60
2023-03-07T07:51:05.814Z,2.60
2023-03-07T07:53:33.475Z,2.70
2023-03-07T07:56:01.122Z,2.90
2023-03-07T07:58:28.370Z,3.20
2023-03-07T08:00:55.752Z,3.40
2023-03-07T08:03:23.190Z,3.60
2023-03-07T08:05:51.351Z,3.60
2023-03-07T08:08:19.790Z,3.60
2023-03-07T08:10:47.927Z,3.70
2023-03-07T08:13:18.081Z,3.80
2023-03-07T08:15:45.438Z,3.90
2023-03-07T08:18:12.743Z,3.90
2023-03-07T08:20:41.560Z,4.00
2023-03-07T08:23:09.110Z,4.10
2023-03-07T08:25:36.511Z,4.20
2023-03-07T08:28:05.770Z,4.40
2023-03-07T08:30:35.462Z,4.80
2023-03-07T08:33:02.809Z,5.10
2023-03-07T08:35:31.221Z,5.40
2023-03-07T08:38:00.055Z,5.70
2023-03-07T08:40:29.305Z,5.80
2023-03-07T08:42:56.619Z,5.90
2023-03-07T08:45:24.618Z,6.00
2023-03-07T08:47:56.102Z,6.40
2023-03-07T08:50:28.445Z,6.60
2023-03-07T08:52:56.335Z,7.00
2023-03-07T08:55:23.739Z,7.00
2023-03-07T08:57:51.340Z,6.90
2023-03-07T09:00:19.380Z,6.50
2023-03-07T09:02:47.213Z,6.50
2023-03-07T09:05:14.412Z,6.80
2023-03-07T09:07:42.751Z,7.00
2023-03-07T09:10:11.944Z,7.40
2023-03-07T09:12:39.218Z,7.40
2023-03-07T09:15:07.160Z,7.20
2023-03-07T09:17:34.386Z,7.00
2023-03-07T09:20:01.672Z,7.00
2023-03-07T09:22:28.953Z,7.40
2023-03-07T09:24:56.280Z,7.50
2023-03-07T09:27:23.519Z,7.70
2023-03-07T09:29:51.360Z,7.80
2023-03-07T09:32:18.635Z,8.00
2023-03-07T09:34:45.939Z,7.90
2023-03-07T09:37:13.542Z,8.20
2023-03-07T09:39:40.870Z,8.30
2023-03-07T09:42:35.541Z,8.40
2023-03-07T09:45:17.072Z,8.80
2023-03-07T09:48:33.594Z,9.10
2023-03-07T09:51:20.516Z,8.90
2023-03-07T09:54:02.831Z,8.00
2023-03-07T09:56:54.957Z,7.50
2023-03-07T09:59:27.444Z,7.90
2023-03-07T10:02:26.827Z,8.40
2023-03-07T10:05:04.642Z,8.90
2023-03-07T10:07:33.501Z,9.00
2023-03-07T10:10:14.564Z,9.20
2023-03-07T10:13:02.110Z,9.50
2023-03-07T10:16:05.052Z,8.90
2023-03-07T10:19:00.431Z,8.50
2023-03-07T10:21:34.237Z,8.50
2023-03-07T10:24:23.852Z,8.10
2023-03-07T10:27:02.011Z,8.00
2023-03-07T10:29:53.616Z,7.60
2023-03-07T10:32:23.774Z,7.20
2023-03-07T10:35:14.289Z,7.00
2023-03-07T10:37:50.519Z,7.00
2023-03-07T10:40:26.936Z,7.10
2023-03-07T10:42:55.905Z,7.00
2023-03-07T10:45:23.952Z,7.00
2023-03-07T10:47:51.317Z,7.10
2023-03-07T10:50:31.335Z,7.20
2023-03-07T10:53:01.502Z,7.30
2023-03-07T10:55:46.517Z,7.20
2023-03-07T10:58:21.427Z,7.20
2023-03-07T11:01:02.009Z,7.10
2023-03-07T11:03:55.336Z,7.10
2023-03-07T11:06:37.399Z,7.10
2023-03-07T11:09:27.843Z,7.10
2023-03-07T11:12:05.516Z,7.20
2023-03-07T11:15:00.818Z,7.20
2023-03-07T11:17:45.772Z,7.20
2023-03-07T11:20:21.666Z,7.20
2023-03-07T11:22:50.035Z,7.20
2023-03-07T11:25:23.735Z,7.10
2023-03-07T11:27:53.501Z,7.10
2023-03-07T11:30:42.394Z,7.10
2023-03-07T11:33:44.305Z,7.10
2023-03-07T11:36:29.524Z,7.10
2023-03-07T11:39:20.906Z,7.30
2023-03-07T11:41:55.556Z,7.30
2023-03-07T11:44:35.138Z,7.30
2023-03-07T11:47:22.166Z,7.40
2023-03-07T11:50:24.458Z,7.50
2023-03-07T11:53:23.759Z,7.60
2023-03-07T11:55:51.344Z,7.70
2023-03-07T11:58:33.736Z,7.70
2023-03-07T12:01:37.956Z,7.70
2023-03-07T12:04:26.518Z,7.80
2023-03-07T12:07:05.834Z,7.80
2023-03-07T12:09:40.205Z,7.70
2023-03-07T12:12:16.956Z,7.60
2023-03-07T12:14:56.300Z,7.60
2023-03-07T12:17:57.737Z,7.50
2023-03-07T12:20:35.596Z,7.40
2023-03-07T12:23:24.688Z,7.40
2023-03-07T12:25:59.250Z,7.40
2023-03-07T12:28:45.193Z,7.50
2023-03-07T12:31:16.839Z,7.50
2023-03-07T12:34:08.211Z,7.60
2023-03-07T12:36:43.393Z,7.60
2023-03-07T12:39:18.373Z,7.70
2023-03-07T12:41:49.052Z,7.80
2023-03-07T12:45:11.871Z,7.80
2023-03-07T12:47:54.113Z,7.90
2023-03-07T12:51:08.961Z,8.00
2023-03-07T12:53:39.616Z,7.90
2023-03-07T12:56:38.700Z,7.90
2023-03-07T12:59:14.865Z,7.90
2023-03-07T13:01:49.360Z,8.00
2023-03-07T13:04:36.251Z,7.90
2023-03-07T13:07:20.494Z,7.80
2023-03-07T13:09:50.973Z,7.80
2023-03-07T13:12:24.056Z,7.70
2023-03-07T13:15:03.040Z,7.70
2023-03-07T13:17:33.567Z,7.60
2023-03-07T13:20:16.051Z,7.60
2023-03-07T13:22:43.422Z,7.50
2023-03-07T13:25:29.499Z,7.40
2023-03-07T13:28:04.482Z,7.40
2023-03-07T13:30:33.895Z,7.40
2023-03-07T13:33:02.236Z,7.40
2023-03-07T13:35:29.696Z,7.30
2023-03-07T13:38:25.819Z,7.40
2023-03-07T13:40:54.451Z,7.50
2023-03-07T13:43:27.603Z,7.50
2023-03-07T13:46:06.107Z,7.50
2023-03-07T13:48:33.500Z,7.60
2023-03-07T13:51:00.733Z,7.60
2023-03-07T13:53:36.112Z,7.60
2023-03-07T13:56:15.781Z,7.50
2023-03-07T13:59:04.473Z,7.50
2023-03-07T14:01:45.492Z,7.50
2023-03-07T14:04:38.854Z,7.40
2023-03-07T14:07:22.842Z,7.30
2023-03-07T14:10:01.190Z,7.40
2023-03-07T14:12:46.168Z,7.40
2023-03-07T14:15:45.580Z,7.30
2023-03-07T14:18:27.410Z,7.30
2023-03-07T14:21:11.380Z,7.30
2023-03-07T14:24:11.108Z,7.30
2023-03-07T14:26:43.935Z,7.40
2023-03-07T14:29:23.145Z,7.40
2023-03-07T14:31:53.439Z,7.40
2023-03-07T14:34:36.344Z,7.40
2023-03-07T14:37:33.041Z,7.50
2023-03-07T14:40:00.351Z,7.40
2023-03-07T14:43:01.316Z,7.40
2023-03-07T14:45:40.724Z,7.50
2023-03-07T14:48:17.004Z,7.50
2023-03-07T14:50:45.258Z,7.50
2023-03-07T14:53:21.015Z,7.50
2023-03-07T14:55:51.764Z,7.50
2023-03-07T14:58:28.635Z,7.50
2023-03-07T15:01:17.432Z,7.50
2023-03-07T15:03:53.540Z,7.50
2023-03-07T15:06:25.406Z,7.50
2023-03-07T15:08:55.644Z,7.50
2023-03-07T15:11:44.544Z,7.50
2023-03-07T15:14:18.408Z,7.50
2023-03-07T15:16:55.105Z,7.40
2023-03-07T15:19:37.939Z,7.40
2023-03-07T15:22:13.774Z,7.50
2023-03-07T15:24:48.587Z,7.40
2023-03-07T15:27:25.726Z,7.40
2023-03-07T15:29:53.952Z,7.50
2023-03-07T15:32:34.080Z,7.50
2023-03-07T15:35:03.113Z,7.40
2023-03-07T15:37:35.452Z,7.40
2023-03-07T15:40:24.668Z,7.30
2023-03-07T15:43:02.748Z,7.30
2023-03-07T15:45:38.465Z,7.30
2023-03-07T15:48:31.854Z,7.30
2023-03-07T15:51:02.474Z,7.30
2023-03-07T15:53:33.861Z,7.30
2023-03-07T15:56:06.117Z,7.20
2023-03-07T15:58:36.578Z,7.20
2023-03-07T16:01:20.333Z,7.20
2023-03-07T16:03:59.180Z,7.10
2023-03-07T16:06:43.144Z,7.20
2023-03-07T16:09:13.862Z,7.20
2023-03-07T16:11:42.758Z,7.10
2023-03-07T16:14:26.469Z,7.20
2023-03-07T16:17:02.856Z,7.10
2023-03-07T16:19:30.716Z,7.20
2023-03-07T16:21:57.974Z,7.10
2023-03-07T16:24:25.322Z,7.10
2023-03-07T16:26:52.666Z,7.00
2023-03-07T16:29:24.038Z,7.10
2023-03-07T16:31:51.641Z,7.10
2023-03-07T16:34:22.600Z,7.00
2023-03-07T16:36:49.984Z,7.00
2023-03-07T16:39:18.665Z,7.00
2023-03-07T16:41:50.447Z,7.00
2023-03-07T16:44:25.148Z,6.90
2023-03-07T16:46:59.366Z,6.90
2023-03-07T16:49:26.674Z,6.80
2023-03-07T16:52:05.053Z,6.80
2023-03-07T16:54:33.941Z,6.80
2023-03-07T16:57:02.895Z,6.90
2023-03-07T16:59:35.767Z,6.90
2023-03-07T17:02:11.053Z,6.80
2023-03-07T17:04:38.331Z,6.80
2023-03-07T17:07:15.000Z,6.80
2023-03-07T17:09:42.339Z,6.90
2023-03-07T17:12:09.864Z,6.80
2023-03-07T17:14:37.377Z,6.80
2023-03-07T17:17:05.096Z,6.80
2023-03-07T17:19:33.792Z,6.80
2023-03-07T17:22:02.461Z,6.90
2023-03-07T17:24:30.101Z,6.90
2023-03-07T17:27:00.450Z,6.90
2023-03-07T17:29:42.231Z,6.90
2023-03-07T17:32:10.233Z,6.90
2023-03-07T17:34:38.986Z,6.90
2023-03-07T17:37:06.584Z,6.90
2023-03-07T17:39:34.724Z,6.90
2023-03-07T17:42:02.698Z,6.90
2023-03-07T17:44:30.195Z,6.80
2023-03-07T17:46:57.716Z,6.70
2023-03-07T17:49:28.973Z,6.70
2023-03-07T17:51:56.214Z,6.70
2023-03-07T17:54:23.584Z,6.60
2023-03-07T17:56:51.302Z,6.60
2023-03-07T17:59:18.588Z,6.60
2023-03-07T18:01:46.587Z,6.50
2023-03-07T18:04:13.942Z,6.50
2023-03-07T18:06:41.402Z,6.50
2023-03-07T18:09:09.537Z,6.50
2023-03-07T18:11:36.911Z,6.40
2023-03-07T18:14:04.259Z,6.40
2023-03-07T18:16:31.820Z,6.40
2023-03-07T18:19:01.199Z,6.40
2023-03-07T18:21:30.715Z,6.30
2023-03-07T18:23:58.348Z,6.50
2023-03-07T18:26:25.627Z,6.60
2023-03-07T18:28:54.144Z,6.60
2023-03-07T18:31:26.097Z,6.60
2023-03-07T18:33:54.334Z,6.60
2023-03-07T18:36:24.203Z,6.60
2023-03-07T18:38:51.863Z,6.50
2023-03-07T18:41:22.023Z,6.40
2023-03-07T18:43:49.573Z,6.40
2023-03-07T18:46:19.090Z,6.40
2023-03-07T18:48:47.291Z,6.30
2023-03-07T18:51:19.892Z,6.30
2023-03-07T18:53:47.210Z,6.20
2023-03-07T18:56:16.203Z,6.20
2023-03-07T18:58:44.595Z,6.20
2023-03-07T19:01:21.057Z,6.20
2023-03-07T19:03:50.822Z,6.20
2023-03-07T19:06:20.012Z,6.30
2023-03-07T19:08:47.602Z,6.30
2023-03-07T19:11:16.271Z,6.20
2023-03-07T19:13:44.065Z,6.30
2023-03-07T19:16:20.818Z,6.30
2023-03-07T19:18:48.395Z,6.30
2023-03-07T19:21:20.590Z,6.40
2023-03-07T19:23:48.412Z,6.50
2023-03-07T19:26:18.485Z,6.50
2023-03-07T19:28:47.791Z,6.40
2023-03-07T19:31:29.794Z,6.50
2023-03-07T19:33:58.716Z,6.40
2023-03-07T19:36:28.496Z,6.60
2023-03-07T19:38:59.311Z,6.70
2023-03-07T19:41:28.807Z,6.60
2023-03-07T19:43:57.675Z,6.60
2023-03-07T19:46:25.341Z,6.60
2023-03-07T19:48:52.790Z,6.70
2023-03-07T19:51:25.624Z,6.60
2023-03-07T19:53:55.935Z,6.70
2023-03-07T19:56:29.869Z,6.70
2023-03-07T19:58:59.067Z,6.70
2023-03-07T20:01:28.288Z,6.70
2023-03-07T20:03:57.153Z,6.70
2023-03-07T20:06:30.212Z,6.70
2023-03-07T20:08:58.985Z,6.70
2023-03-07T20:11:29.671Z,6.70
2023-03-07T20:13:58.686Z,6.70
2023-03-07T20:16:29.651Z,6.70
2023-03-07T20:18:59.566Z,6.60
2023-03-07T20:21:28.722Z,6.60
2023-03-07T20:23:59.796Z,6.70
2023-03-07T20:26:33.130Z,6.60
2023-03-07T20:29:01.685Z,6.70
2023-03-07T20:31:29.632Z,6.60
2023-03-07T20:33:59.373Z,6.60
2023-03-07T20:36:35.018Z,6.60
2023-03-07T20:39:05.655Z,6.50
2023-03-07T20:41:33.612Z,6.50
2023-03-07T20:44:04.095Z,6.60
2023-03-07T20:46:32.587Z,6.60
2023-03-07T20:49:01.952Z,6.50
2023-03-07T20:51:35.043Z,6.50
2023-03-07T20:54:05.359Z,6.50
2023-03-07T20:56:34.125Z,6.50
2023-03-07T20:59:02.041Z,6.50
2023-03-07T21:01:31.902Z,6.60
2023-03-07T21:04:08.621Z,6.70
2023-03-07T21:06:37.542Z,6.60
2023-03-07T21:09:08.292Z,6.60
2023-03-07T21:11:37.550Z,6.60
2023-03-07T21:14:05.011Z,6.70
2023-03-07T21:16:32.664Z,6.60
2023-03-07T21:19:02.230Z,6.70
2023-03-07T21:21:31.423Z,6.70
2023-03-07T21:23:59.008Z,6.70
2023-03-07T21:26:31.626Z,6.60
2023-03-07T21:28:59.496Z,6.60
2023-03-07T21:31:29.478Z,6.60
2023-03-07T21:33:59.347Z,6.60
2023-03-07T21:36:28.128Z,6.60
2023-03-07T21:38:56.179Z,6.60
2023-03-07T21:41:25.372Z,6.50
2023-03-07T21:43:57.304Z,6.50
2023-03-07T21:46:25.789Z,6.50
2023-03-07T21:48:53.359Z,6.50
2023-03-07T21:51:21.201Z,6.50
2023-03-07T21:53:48.620Z,6.40
2023-03-07T21:56:17.473Z,6.40
2023-03-07T21:58:48.678Z,6.40
2023-03-07T22:01:22.190Z,6.40
2023-03-07T22:03:55.684Z,6.40
2023-03-07T22:06:25.469Z,6.40
2023-03-07T22:08:53.226Z,6.30
2023-03-07T22:11:20.832Z,6.40
2023-03-07T22:13:48.263Z,6.40
2023-03-07T22:16:20.848Z,6.40
2023-03-07T22:18:57.494Z,6.30
2023-03-07T22:21:26.842Z,6.30
2023-03-07T22:24:01.334Z,6.30
2023-03-07T22:26:33.091Z,6.20
2023-03-07T22:29:00.906Z,6.20
2023-03-07T22:31:28.298Z,6.20
2023-03-07T22:33:55.959Z,6.10
2023-03-07T22:36:23.295Z,6.10
2023-03-07T22:38:55.394Z,6.20
2023-03-07T22:41:23.978Z,6.20
2023-03-07T22:43:52.690Z,6.10
2023-03-07T22:46:20.337Z,6.10
2023-03-07T22:48:47.583Z,6.20
2023-03-07T22:51:18.360Z,6.20
2023-03-07T22:53:46.126Z,6.10
2023-03-07T22:56:27.405Z,6.10
2023-03-07T22:58:55.125Z,6.10
2023-03-07T23:01:25.446Z,6.00
2023-03-07T23:03:54.344Z,6.10
2023-03-07T23:06:22.997Z,6.00
2023-03-07T23:08:54.261Z,6.00
2023-03-07T23:11:23.941Z,6.00
2023-03-07T23:13:51.701Z,6.00
2023-03-07T23:16:22.366Z,6.00
2023-03-07T23:18:51.102Z,5.90
2023-03-07T23:21:21.384Z,5.90
2023-03-07T23:23:49.119Z,5.90
2023-03-07T23:26:22.668Z,5.90
2023-03-07T23:28:50.784Z,5.90
2023-03-07T23:31:21.887Z,5.90
2023-03-07T23:33:49.851Z,6.00
2023-03-07T23:36:17.928Z,5.90
2023-03-07T23:38:46.564Z,5.80
2023-03-07T23:41:14.999Z,5.80
2023-03-07T23:43:42.370Z,5.80
2023-03-07T23:46:09.685Z,5.80
2023-03-07T23:48:37.173Z,5.80
2023-03-07T23:51:04.645Z,5.70
2023-03-07T23:53:31.921Z,5.70
2023-03-07T23:55:59.259Z,5.70
2023-03-07T23:58:26.618Z,5.70
